sensor_id;sensor_type;location;lat;lon;timestamp;temperature;humidity
51500;DHT22;39101;53.478;6.158;2023-07-31T00:00:14;17.10;99.90
51500;DHT22;39101;53.478;6.158;2023-07-31T00:02:39;17.10;99.90
51500;DHT22;39101;53.478;6.158;2023-07-31T00:05:05;17.10;99.90
51500;DHT22;39101;53.478;6.158;2023-07-31T00:07:32;17.10;99.90
51500;DHT22;39101;53.478;6.158;2023-07-31T00:09:58;17.00;99.90
51500;DHT22;39101;53.478;6.158;2023-07-31T00:12:23;17.00;99.90
51500;DHT22;39101;53.478;6.158;2023-07-31T00:14:49;17.00;99.90
51500;DHT22;39101;53.478;6.158;2023-07-31T00:17:16;17.00;99.90
51500;DHT22;39101;53.478;6.158;2023-07-31T00:19:42;17.00;99.90
51500;DHT22;39101;53.478;6.158;2023-07-31T00:22:07;17.00;99.90
51500;DHT22;39101;53.478;6.158;2023-07-31T00:24:33;17.00;99.90
51500;DHT22;39101;53.478;6.158;2023-07-31T00:26:58;17.00;99.90
51500;DHT22;39101;53.478;6.158;2023-07-31T00:29:24;17.00;99.90
51500;DHT22;39101;53.478;6.158;2023-07-31T00:31:50;17.00;99.90
51500;DHT22;39101;53.478;6.158;2023-07-31T00:34:15;17.00;99.90
51500;DHT22;39101;53.478;6.158;2023-07-31T00:36:41;17.00;99.90
51500;DHT22;39101;53.478;6.158;2023-07-31T00:39:06;17.00;99.90
51500;DHT22;39101;53.478;6.158;2023-07-31T00:41:32;16.90;99.90
51500;DHT22;39101;53.478;6.158;2023-07-31T00:43:58;16.90;99.90
51500;DHT22;39101;53.478;6.158;2023-07-31T00:46:23;16.90;99.90
51500;DHT22;39101;53.478;6.158;2023-07-31T00:48:49;16.90;99.90
51500;DHT22;39101;53.478;6.158;2023-07-31T00:51:15;16.90;99.90
51500;DHT22;39101;53.478;6.158;2023-07-31T00:53:41;16.90;99.90
51500;DHT22;39101;53.478;6.158;2023-07-31T00:56:08;16.90;99.90
51500;DHT22;39101;53.478;6.158;2023-07-31T00:58:34;16.90;99.90
51500;DHT22;39101;53.478;6.158;2023-07-31T01:00:59;16.90;99.90
51500;DHT22;39101;53.478;6.158;2023-07-31T01:03:25;16.90;99.90
51500;DHT22;39101;53.478;6.158;2023-07-31T01:08:44;17.00;99.90
51500;DHT22;39101;53.478;6.158;2023-07-31T01:11:19;16.90;99.90
51500;DHT22;39101;53.478;6.158;2023-07-31T01:13:47;16.90;99.90
51500;DHT22;39101;53.478;6.158;2023-07-31T01:16:13;17.00;99.90
51500;DHT22;39101;53.478;6.158;2023-07-31T01:18:38;16.90;99.90
51500;DHT22;39101;53.478;6.158;2023-07-31T01:26:28;16.90;99.90
51500;DHT22;39101;53.478;6.158;2023-07-31T01:29:17;16.90;99.90
51500;DHT22;39101;53.478;6.158;2023-07-31T01:31:48;16.90;99.90
51500;DHT22;39101;53.478;6.158;2023-07-31T01:34:17;16.90;99.90
51500;DHT22;39101;53.478;6.158;2023-07-31T01:36:43;16.90;99.90
51500;DHT22;39101;53.478;6.158;2023-07-31T01:39:09;16.90;99.90
51500;DHT22;39101;53.478;6.158;2023-07-31T01:41:35;16.90;99.90
51500;DHT22;39101;53.478;6.158;2023-07-31T01:44:00;16.90;99.90
51500;DHT22;39101;53.478;6.158;2023-07-31T01:46:26;16.90;99.90
51500;DHT22;39101;53.478;6.158;2023-07-31T01:48:51;16.90;99.90
51500;DHT22;39101;53.478;6.158;2023-07-31T01:51:17;16.90;99.90
51500;DHT22;39101;53.478;6.158;2023-07-31T01:53:43;16.90;99.90
51500;DHT22;39101;53.478;6.158;2023-07-31T01:56:08;16.80;99.90
51500;DHT22;39101;53.478;6.158;2023-07-31T01:58:34;16.80;99.90
51500;DHT22;39101;53.478;6.158;2023-07-31T02:01:00;16.90;99.90
51500;DHT22;39101;53.478;6.158;2023-07-31T02:03:25;16.90;99.90
51500;DHT22;39101;53.478;6.158;2023-07-31T02:05:51;16.80;99.90
51500;DHT22;39101;53.478;6.158;2023-07-31T02:08:17;16.90;99.90
51500;DHT22;39101;53.478;6.158;2023-07-31T02:10:42;16.80;99.90
51500;DHT22;39101;53.478;6.158;2023-07-31T02:13:08;16.80;99.90
51500;DHT22;39101;53.478;6.158;2023-07-31T02:15:35;16.80;99.90
51500;DHT22;39101;53.478;6.158;2023-07-31T02:18:01;16.80;99.90
51500;DHT22;39101;53.478;6.158;2023-07-31T02:20:26;16.80;99.90
51500;DHT22;39101;53.478;6.158;2023-07-31T02:22:52;16.80;99.90
51500;DHT22;39101;53.478;6.158;2023-07-31T02:25:17;16.80;99.90
51500;DHT22;39101;53.478;6.158;2023-07-31T02:27:43;16.80;99.90
51500;DHT22;39101;53.478;6.158;2023-07-31T02:30:09;16.80;99.90
51500;DHT22;39101;53.478;6.158;2023-07-31T02:32:35;16.80;99.90
51500;DHT22;39101;53.478;6.158;2023-07-31T02:35:01;16.70;99.90
51500;DHT22;39101;53.478;6.158;2023-07-31T02:37:26;16.70;99.90
51500;DHT22;39101;53.478;6.158;2023-07-31T02:39:54;16.70;99.90
51500;DHT22;39101;53.478;6.158;2023-07-31T02:42:20;16.60;99.90
51500;DHT22;39101;53.478;6.158;2023-07-31T02:44:46;16.60;99.90
51500;DHT22;39101;53.478;6.158;2023-07-31T02:47:11;16.50;99.90
51500;DHT22;39101;53.478;6.158;2023-07-31T02:49:37;16.50;99.90
51500;DHT22;39101;53.478;6.158;2023-07-31T02:52:03;16.30;99.90
51500;DHT22;39101;53.478;6.158;2023-07-31T02:54:29;16.30;99.90
51500;DHT22;39101;53.478;6.158;2023-07-31T02:56:54;16.20;99.90
51500;DHT22;39101;53.478;6.158;2023-07-31T02:59:20;16.20;99.90
51500;DHT22;39101;53.478;6.158;2023-07-31T03:01:46;16.20;99.90
51500;DHT22;39101;53.478;6.158;2023-07-31T03:04:11;16.20;99.90
51500;DHT22;39101;53.478;6.158;2023-07-31T03:06:37;16.20;99.90
51500;DHT22;39101;53.478;6.158;2023-07-31T03:09:03;16.20;99.90
51500;DHT22;39101;53.478;6.158;2023-07-31T03:11:28;16.20;99.90
51500;DHT22;39101;53.478;6.158;2023-07-31T03:13:54;16.20;99.90
51500;DHT22;39101;53.478;6.158;2023-07-31T03:16:19;16.20;99.90
51500;DHT22;39101;53.478;6.158;2023-07-31T03:18:45;16.10;99.90
51500;DHT22;39101;53.478;6.158;2023-07-31T03:21:11;16.20;99.90
51500;DHT22;39101;53.478;6.158;2023-07-31T03:23:37;16.10;99.90
51500;DHT22;39101;53.478;6.158;2023-07-31T03:26:08;16.20;99.90
51500;DHT22;39101;53.478;6.158;2023-07-31T03:28:33;16.10;99.90
51500;DHT22;39101;53.478;6.158;2023-07-31T03:30:59;16.20;99.90
51500;DHT22;39101;53.478;6.158;2023-07-31T03:33:25;16.10;99.90
51500;DHT22;39101;53.478;6.158;2023-07-31T03:35:51;16.20;99.90
51500;DHT22;39101;53.478;6.158;2023-07-31T03:38:17;16.10;99.90
51500;DHT22;39101;53.478;6.158;2023-07-31T03:40:42;16.10;99.90
51500;DHT22;39101;53.478;6.158;2023-07-31T03:43:08;16.20;99.90
51500;DHT22;39101;53.478;6.158;2023-07-31T03:45:34;16.10;99.90
51500;DHT22;39101;53.478;6.158;2023-07-31T03:47:59;16.00;99.90
51500;DHT22;39101;53.478;6.158;2023-07-31T03:50:25;15.90;99.90
51500;DHT22;39101;53.478;6.158;2023-07-31T03:52:51;15.80;99.90
51500;DHT22;39101;53.478;6.158;2023-07-31T03:55:17;15.70;99.90
51500;DHT22;39101;53.478;6.158;2023-07-31T03:57:43;15.70;99.90
51500;DHT22;39101;53.478;6.158;2023-07-31T04:00:09;15.70;99.90
51500;DHT22;39101;53.478;6.158;2023-07-31T04:02:35;15.80;99.90
51500;DHT22;39101;53.478;6.158;2023-07-31T04:05:01;15.80;99.90
51500;DHT22;39101;53.478;6.158;2023-07-31T04:07:26;15.80;99.90
51500;DHT22;39101;53.478;6.158;2023-07-31T04:09:52;15.80;99.90
51500;DHT22;39101;53.478;6.158;2023-07-31T04:12:18;15.80;99.90
51500;DHT22;39101;53.478;6.158;2023-07-31T04:14:43;15.80;99.90
51500;DHT22;39101;53.478;6.158;2023-07-31T04:17:09;15.80;99.90
51500;DHT22;39101;53.478;6.158;2023-07-31T04:19:34;15.80;99.90
51500;DHT22;39101;53.478;6.158;2023-07-31T04:22:00;15.70;99.90
51500;DHT22;39101;53.478;6.158;2023-07-31T04:24:26;15.70;99.90
51500;DHT22;39101;53.478;6.158;2023-07-31T04:26:53;15.70;99.90
51500;DHT22;39101;53.478;6.158;2023-07-31T04:29:18;15.70;99.90
51500;DHT22;39101;53.478;6.158;2023-07-31T04:31:44;15.60;99.90
51500;DHT22;39101;53.478;6.158;2023-07-31T04:34:10;15.60;99.90
51500;DHT22;39101;53.478;6.158;2023-07-31T04:36:37;15.60;99.90
51500;DHT22;39101;53.478;6.158;2023-07-31T04:39:02;15.60;99.90
51500;DHT22;39101;53.478;6.158;2023-07-31T04:41:28;15.60;99.90
51500;DHT22;39101;53.478;6.158;2023-07-31T04:43:54;15.50;99.90
51500;DHT22;39101;53.478;6.158;2023-07-31T04:46:19;15.60;99.90
51500;DHT22;39101;53.478;6.158;2023-07-31T04:48:45;15.60;99.90
51500;DHT22;39101;53.478;6.158;2023-07-31T04:51:11;15.60;99.90
51500;DHT22;39101;53.478;6.158;2023-07-31T04:53:36;15.60;99.90
51500;DHT22;39101;53.478;6.158;2023-07-31T04:56:02;15.50;99.90
51500;DHT22;39101;53.478;6.158;2023-07-31T04:58:28;15.50;99.90
51500;DHT22;39101;53.478;6.158;2023-07-31T05:00:54;15.50;99.90
51500;DHT22;39101;53.478;6.158;2023-07-31T05:03:19;15.50;99.90
51500;DHT22;39101;53.478;6.158;2023-07-31T05:05:45;15.50;99.90
51500;DHT22;39101;53.478;6.158;2023-07-31T05:08:11;15.50;99.90
51500;DHT22;39101;53.478;6.158;2023-07-31T05:10:36;15.50;99.90
51500;DHT22;39101;53.478;6.158;2023-07-31T05:13:02;15.50;99.90
51500;DHT22;39101;53.478;6.158;2023-07-31T05:15:28;15.50;99.90
51500;DHT22;39101;53.478;6.158;2023-07-31T05:17:54;15.40;99.90
51500;DHT22;39101;53.478;6.158;2023-07-31T05:20:20;15.50;99.90
51500;DHT22;39101;53.478;6.158;2023-07-31T05:22:46;15.40;99.90
51500;DHT22;39101;53.478;6.158;2023-07-31T05:25:12;15.40;99.90
51500;DHT22;39101;53.478;6.158;2023-07-31T05:27:38;15.40;99.90
51500;DHT22;39101;53.478;6.158;2023-07-31T05:30:04;15.40;99.90
51500;DHT22;39101;53.478;6.158;2023-07-31T05:32:30;15.40;99.90
51500;DHT22;39101;53.478;6.158;2023-07-31T05:34:56;15.50;99.90
51500;DHT22;39101;53.478;6.158;2023-07-31T05:37:22;15.50;99.90
51500;DHT22;39101;53.478;6.158;2023-07-31T05:39:48;15.50;99.90
51500;DHT22;39101;53.478;6.158;2023-07-31T05:42:13;15.50;99.90
51500;DHT22;39101;53.478;6.158;2023-07-31T05:44:39;15.50;99.90
51500;DHT22;39101;53.478;6.158;2023-07-31T05:47:05;15.50;99.90
51500;DHT22;39101;53.478;6.158;2023-07-31T05:49:30;15.50;99.90
51500;DHT22;39101;53.478;6.158;2023-07-31T05:51:56;15.50;99.90
51500;DHT22;39101;53.478;6.158;2023-07-31T05:54:22;15.50;99.90
51500;DHT22;39101;53.478;6.158;2023-07-31T05:56:47;15.60;99.90
51500;DHT22;39101;53.478;6.158;2023-07-31T05:59:13;15.50;99.90
51500;DHT22;39101;53.478;6.158;2023-07-31T06:01:39;15.50;99.90
51500;DHT22;39101;53.478;6.158;2023-07-31T06:04:05;15.60;99.90
51500;DHT22;39101;53.478;6.158;2023-07-31T06:06:30;15.60;99.90
51500;DHT22;39101;53.478;6.158;2023-07-31T06:08:56;15.60;99.90
51500;DHT22;39101;53.478;6.158;2023-07-31T06:11:22;15.60;99.90
51500;DHT22;39101;53.478;6.158;2023-07-31T06:13:48;15.60;99.90
51500;DHT22;39101;53.478;6.158;2023-07-31T06:16:15;15.70;99.90
51500;DHT22;39101;53.478;6.158;2023-07-31T06:18:41;15.70;99.90
51500;DHT22;39101;53.478;6.158;2023-07-31T06:21:08;15.60;99.90
51500;DHT22;39101;53.478;6.158;2023-07-31T06:23:33;15.60;99.90
51500;DHT22;39101;53.478;6.158;2023-07-31T06:25:59;15.60;99.90
51500;DHT22;39101;53.478;6.158;2023-07-31T06:28:31;15.60;99.90
51500;DHT22;39101;53.478;6.158;2023-07-31T06:31:00;15.60;99.90
51500;DHT22;39101;53.478;6.158;2023-07-31T06:33:26;15.60;99.90
51500;DHT22;39101;53.478;6.158;2023-07-31T06:35:53;15.60;99.90
51500;DHT22;39101;53.478;6.158;2023-07-31T06:38:26;15.60;99.90
51500;DHT22;39101;53.478;6.158;2023-07-31T06:40:51;15.60;99.90
51500;DHT22;39101;53.478;6.158;2023-07-31T06:43:17;15.60;99.90
51500;DHT22;39101;53.478;6.158;2023-07-31T06:45:43;15.60;99.90
51500;DHT22;39101;53.478;6.158;2023-07-31T06:48:08;15.60;99.90
51500;DHT22;39101;53.478;6.158;2023-07-31T06:50:34;15.60;99.90
51500;DHT22;39101;53.478;6.158;2023-07-31T06:53:00;15.50;99.90
51500;DHT22;39101;53.478;6.158;2023-07-31T06:55:26;15.60;99.90
51500;DHT22;39101;53.478;6.158;2023-07-31T06:57:53;15.60;99.90
51500;DHT22;39101;53.478;6.158;2023-07-31T07:00:20;15.50;99.90
51500;DHT22;39101;53.478;6.158;2023-07-31T07:02:46;15.50;99.90
51500;DHT22;39101;53.478;6.158;2023-07-31T07:05:16;15.60;99.90
51500;DHT22;39101;53.478;6.158;2023-07-31T07:07:42;15.50;99.90
51500;DHT22;39101;53.478;6.158;2023-07-31T07:10:09;15.70;99.90
51500;DHT22;39101;53.478;6.158;2023-07-31T07:12:35;15.60;99.90
51500;DHT22;39101;53.478;6.158;2023-07-31T07:15:01;15.60;99.90
51500;DHT22;39101;53.478;6.158;2023-07-31T07:17:29;15.60;99.90
51500;DHT22;39101;53.478;6.158;2023-07-31T07:19:58;15.60;99.90
51500;DHT22;39101;53.478;6.158;2023-07-31T07:22:24;15.60;99.90
51500;DHT22;39101;53.478;6.158;2023-07-31T07:24:50;15.70;99.90
51500;DHT22;39101;53.478;6.158;2023-07-31T07:27:16;15.70;99.90
51500;DHT22;39101;53.478;6.158;2023-07-31T07:29:41;15.80;99.90
51500;DHT22;39101;53.478;6.158;2023-07-31T07:32:07;15.80;99.90
51500;DHT22;39101;53.478;6.158;2023-07-31T07:34:33;15.80;99.90
51500;DHT22;39101;53.478;6.158;2023-07-31T07:36:58;15.80;99.90
51500;DHT22;39101;53.478;6.158;2023-07-31T07:39:24;15.80;99.90
51500;DHT22;39101;53.478;6.158;2023-07-31T07:41:50;15.80;99.90
51500;DHT22;39101;53.478;6.158;2023-07-31T07:44:16;15.90;99.90
51500;DHT22;39101;53.478;6.158;2023-07-31T07:46:42;15.90;99.90
51500;DHT22;39101;53.478;6.158;2023-07-31T07:49:07;15.90;99.90
51500;DHT22;39101;53.478;6.158;2023-07-31T07:51:33;15.90;99.90
51500;DHT22;39101;53.478;6.158;2023-07-31T07:53:59;15.90;99.90
51500;DHT22;39101;53.478;6.158;2023-07-31T07:56:26;15.80;99.90
51500;DHT22;39101;53.478;6.158;2023-07-31T07:58:52;15.90;99.90
51500;DHT22;39101;53.478;6.158;2023-07-31T08:01:17;15.90;99.90
51500;DHT22;39101;53.478;6.158;2023-07-31T08:03:43;15.80;99.90
51500;DHT22;39101;53.478;6.158;2023-07-31T08:06:09;15.90;99.90
51500;DHT22;39101;53.478;6.158;2023-07-31T08:08:35;16.00;99.90
51500;DHT22;39101;53.478;6.158;2023-07-31T08:11:01;16.00;99.90
51500;DHT22;39101;53.478;6.158;2023-07-31T08:13:27;15.90;99.90
51500;DHT22;39101;53.478;6.158;2023-07-31T08:15:53;16.00;99.90
51500;DHT22;39101;53.478;6.158;2023-07-31T08:18:19;16.10;99.90
51500;DHT22;39101;53.478;6.158;2023-07-31T08:20:44;16.20;99.90
51500;DHT22;39101;53.478;6.158;2023-07-31T08:23:10;16.30;99.90
51500;DHT22;39101;53.478;6.158;2023-07-31T08:25:36;16.60;99.90
51500;DHT22;39101;53.478;6.158;2023-07-31T08:28:03;16.80;99.90
51500;DHT22;39101;53.478;6.158;2023-07-31T08:30:29;16.80;99.90
51500;DHT22;39101;53.478;6.158;2023-07-31T08:32:55;16.90;99.90
51500;DHT22;39101;53.478;6.158;2023-07-31T08:35:21;17.00;99.90
51500;DHT22;39101;53.478;6.158;2023-07-31T08:37:46;17.10;99.90
51500;DHT22;39101;53.478;6.158;2023-07-31T08:40:12;17.10;99.90
51500;DHT22;39101;53.478;6.158;2023-07-31T08:42:49;17.20;99.90
51500;DHT22;39101;53.478;6.158;2023-07-31T08:45:16;17.30;99.90
51500;DHT22;39101;53.478;6.158;2023-07-31T08:47:46;17.40;99.90
51500;DHT22;39101;53.478;6.158;2023-07-31T08:50:13;17.50;99.90
51500;DHT22;39101;53.478;6.158;2023-07-31T08:52:39;17.60;99.90
51500;DHT22;39101;53.478;6.158;2023-07-31T08:55:06;17.70;99.90
51500;DHT22;39101;53.478;6.158;2023-07-31T08:57:34;17.60;99.90
51500;DHT22;39101;53.478;6.158;2023-07-31T09:00:01;17.40;99.90
51500;DHT22;39101;53.478;6.158;2023-07-31T09:02:34;17.30;99.90
51500;DHT22;39101;53.478;6.158;2023-07-31T09:05:01;17.20;99.90
51500;DHT22;39101;53.478;6.158;2023-07-31T09:07:29;17.20;99.90
51500;DHT22;39101;53.478;6.158;2023-07-31T09:09:55;17.10;99.90
51500;DHT22;39101;53.478;6.158;2023-07-31T09:12:21;17.10;99.90
51500;DHT22;39101;53.478;6.158;2023-07-31T09:14:47;17.00;99.90
51500;DHT22;39101;53.478;6.158;2023-07-31T09:17:12;17.10;99.90
51500;DHT22;39101;53.478;6.158;2023-07-31T09:19:38;16.90;99.90
51500;DHT22;39101;53.478;6.158;2023-07-31T09:22:05;17.00;99.90
51500;DHT22;39101;53.478;6.158;2023-07-31T09:24:32;17.00;99.90
51500;DHT22;39101;53.478;6.158;2023-07-31T09:27:00;17.00;99.90
51500;DHT22;39101;53.478;6.158;2023-07-31T09:29:27;16.90;99.90
51500;DHT22;39101;53.478;6.158;2023-07-31T09:31:53;17.00;99.90
51500;DHT22;39101;53.478;6.158;2023-07-31T09:34:20;17.10;99.90
51500;DHT22;39101;53.478;6.158;2023-07-31T09:36:53;17.10;99.90
51500;DHT22;39101;53.478;6.158;2023-07-31T09:39:19;17.10;99.90
51500;DHT22;39101;53.478;6.158;2023-07-31T09:41:54;17.20;99.90
51500;DHT22;39101;53.478;6.158;2023-07-31T09:44:20;17.20;99.90
51500;DHT22;39101;53.478;6.158;2023-07-31T09:46:46;17.30;99.90
51500;DHT22;39101;53.478;6.158;2023-07-31T09:49:13;17.20;99.90
51500;DHT22;39101;53.478;6.158;2023-07-31T09:51:41;17.30;99.90
51500;DHT22;39101;53.478;6.158;2023-07-31T09:54:15;17.30;99.90
51500;DHT22;39101;53.478;6.158;2023-07-31T09:56:48;17.30;99.90
51500;DHT22;39101;53.478;6.158;2023-07-31T09:59:19;17.30;99.90
51500;DHT22;39101;53.478;6.158;2023-07-31T10:01:45;17.40;99.90
51500;DHT22;39101;53.478;6.158;2023-07-31T10:04:12;17.50;99.90
51500;DHT22;39101;53.478;6.158;2023-07-31T10:06:40;17.60;99.90
51500;DHT22;39101;53.478;6.158;2023-07-31T10:09:12;17.50;99.90
51500;DHT22;39101;53.478;6.158;2023-07-31T10:11:53;17.60;99.90
51500;DHT22;39101;53.478;6.158;2023-07-31T10:14:21;17.60;99.90
51500;DHT22;39101;53.478;6.158;2023-07-31T10:16:49;17.60;99.90
51500;DHT22;39101;53.478;6.158;2023-07-31T10:19:16;17.60;99.90
51500;DHT22;39101;53.478;6.158;2023-07-31T10:21:42;17.60;99.90
51500;DHT22;39101;53.478;6.158;2023-07-31T10:24:09;17.60;99.90
51500;DHT22;39101;53.478;6.158;2023-07-31T10:26:35;17.70;99.90
51500;DHT22;39101;53.478;6.158;2023-07-31T10:29:03;17.60;99.90
51500;DHT22;39101;53.478;6.158;2023-07-31T10:31:30;17.60;99.90
51500;DHT22;39101;53.478;6.158;2023-07-31T10:33:57;17.70;99.90
51500;DHT22;39101;53.478;6.158;2023-07-31T10:36:24;17.70;99.90
51500;DHT22;39101;53.478;6.158;2023-07-31T10:38:50;17.70;99.90
51500;DHT22;39101;53.478;6.158;2023-07-31T10:41:19;17.80;99.90
51500;DHT22;39101;53.478;6.158;2023-07-31T10:43:47;17.80;99.90
51500;DHT22;39101;53.478;6.158;2023-07-31T10:46:13;17.90;99.90
51500;DHT22;39101;53.478;6.158;2023-07-31T10:48:40;17.80;99.90
51500;DHT22;39101;53.478;6.158;2023-07-31T10:51:11;17.80;99.90
51500;DHT22;39101;53.478;6.158;2023-07-31T10:53:41;17.70;99.90
51500;DHT22;39101;53.478;6.158;2023-07-31T10:56:10;17.70;99.90
51500;DHT22;39101;53.478;6.158;2023-07-31T10:58:44;17.90;99.90
51500;DHT22;39101;53.478;6.158;2023-07-31T11:01:11;17.90;99.90
51500;DHT22;39101;53.478;6.158;2023-07-31T11:03:47;18.00;99.90
51500;DHT22;39101;53.478;6.158;2023-07-31T11:06:14;18.10;99.90
51500;DHT22;39101;53.478;6.158;2023-07-31T11:08:47;18.10;99.90
51500;DHT22;39101;53.478;6.158;2023-07-31T11:11:17;18.10;99.90
51500;DHT22;39101;53.478;6.158;2023-07-31T11:13:53;18.10;99.90
51500;DHT22;39101;53.478;6.158;2023-07-31T11:16:21;18.10;99.90
51500;DHT22;39101;53.478;6.158;2023-07-31T11:18:48;18.20;99.90
51500;DHT22;39101;53.478;6.158;2023-07-31T11:21:18;18.20;99.90
51500;DHT22;39101;53.478;6.158;2023-07-31T11:23:48;18.30;99.90
51500;DHT22;39101;53.478;6.158;2023-07-31T11:26:15;18.20;99.90
51500;DHT22;39101;53.478;6.158;2023-07-31T11:28:41;18.10;99.90
51500;DHT22;39101;53.478;6.158;2023-07-31T11:31:11;18.00;99.90
51500;DHT22;39101;53.478;6.158;2023-07-31T11:33:37;18.00;99.90
51500;DHT22;39101;53.478;6.158;2023-07-31T11:36:03;17.90;99.90
51500;DHT22;39101;53.478;6.158;2023-07-31T11:38:32;18.00;99.90
51500;DHT22;39101;53.478;6.158;2023-07-31T11:40:59;17.90;99.90
51500;DHT22;39101;53.478;6.158;2023-07-31T11:43:25;17.90;99.90
51500;DHT22;39101;53.478;6.158;2023-07-31T11:45:57;17.90;99.90
51500;DHT22;39101;53.478;6.158;2023-07-31T11:48:25;18.10;99.90
51500;DHT22;39101;53.478;6.158;2023-07-31T11:50:59;18.20;99.90
51500;DHT22;39101;53.478;6.158;2023-07-31T11:53:28;18.20;99.90
51500;DHT22;39101;53.478;6.158;2023-07-31T11:55:55;18.20;99.90
51500;DHT22;39101;53.478;6.158;2023-07-31T11:58:23;18.20;99.90
51500;DHT22;39101;53.478;6.158;2023-07-31T12:00:49;18.20;99.90
51500;DHT22;39101;53.478;6.158;2023-07-31T12:03:15;18.20;99.90
51500;DHT22;39101;53.478;6.158;2023-07-31T12:05:41;18.30;99.90
51500;DHT22;39101;53.478;6.158;2023-07-31T12:08:11;18.30;99.90
51500;DHT22;39101;53.478;6.158;2023-07-31T12:10:38;18.30;99.90
51500;DHT22;39101;53.478;6.158;2023-07-31T12:13:05;18.20;99.90
51500;DHT22;39101;53.478;6.158;2023-07-31T12:15:36;18.20;99.90
51500;DHT22;39101;53.478;6.158;2023-07-31T12:18:13;18.20;99.90
51500;DHT22;39101;53.478;6.158;2023-07-31T12:20:43;18.10;99.90
51500;DHT22;39101;53.478;6.158;2023-07-31T12:23:17;18.00;99.90
51500;DHT22;39101;53.478;6.158;2023-07-31T12:25:44;18.10;99.90
51500;DHT22;39101;53.478;6.158;2023-07-31T12:28:10;18.00;99.90
51500;DHT22;39101;53.478;6.158;2023-07-31T12:30:40;18.00;99.90
51500;DHT22;39101;53.478;6.158;2023-07-31T12:33:15;18.00;99.90
51500;DHT22;39101;53.478;6.158;2023-07-31T12:35:44;18.00;99.90
51500;DHT22;39101;53.478;6.158;2023-07-31T12:38:11;18.20;99.90
51500;DHT22;39101;53.478;6.158;2023-07-31T12:40:39;18.30;99.90
51500;DHT22;39101;53.478;6.158;2023-07-31T12:43:06;18.40;99.90
51500;DHT22;39101;53.478;6.158;2023-07-31T12:45:32;18.50;99.90
51500;DHT22;39101;53.478;6.158;2023-07-31T12:47:58;18.50;99.90
51500;DHT22;39101;53.478;6.158;2023-07-31T12:50:25;18.60;99.90
51500;DHT22;39101;53.478;6.158;2023-07-31T12:52:52;18.60;99.90
51500;DHT22;39101;53.478;6.158;2023-07-31T12:55:18;18.70;99.90
51500;DHT22;39101;53.478;6.158;2023-07-31T12:57:44;18.60;99.90
51500;DHT22;39101;53.478;6.158;2023-07-31T13:00:10;18.60;99.90
51500;DHT22;39101;53.478;6.158;2023-07-31T13:02:36;18.60;99.90
51500;DHT22;39101;53.478;6.158;2023-07-31T13:05:02;18.70;99.90
51500;DHT22;39101;53.478;6.158;2023-07-31T13:07:28;18.60;99.90
51500;DHT22;39101;53.478;6.158;2023-07-31T13:09:53;18.60;99.90
51500;DHT22;39101;53.478;6.158;2023-07-31T13:12:19;18.60;99.90
51500;DHT22;39101;53.478;6.158;2023-07-31T13:14:45;18.60;99.90
51500;DHT22;39101;53.478;6.158;2023-07-31T13:17:10;18.60;99.90
51500;DHT22;39101;53.478;6.158;2023-07-31T13:19:36;18.70;99.90
51500;DHT22;39101;53.478;6.158;2023-07-31T13:22:02;18.60;99.90
51500;DHT22;39101;53.478;6.158;2023-07-31T13:24:27;18.70;99.90
51500;DHT22;39101;53.478;6.158;2023-07-31T13:26:55;18.80;99.90
51500;DHT22;39101;53.478;6.158;2023-07-31T13:29:20;18.80;99.90
51500;DHT22;39101;53.478;6.158;2023-07-31T13:31:47;18.80;99.90
51500;DHT22;39101;53.478;6.158;2023-07-31T13:34:13;18.80;99.90
51500;DHT22;39101;53.478;6.158;2023-07-31T13:36:38;18.80;99.90
51500;DHT22;39101;53.478;6.158;2023-07-31T13:39:04;18.90;99.90
51500;DHT22;39101;53.478;6.158;2023-07-31T13:41:30;19.00;99.90
51500;DHT22;39101;53.478;6.158;2023-07-31T13:43:55;19.00;99.90
51500;DHT22;39101;53.478;6.158;2023-07-31T13:46:21;19.00;99.90
51500;DHT22;39101;53.478;6.158;2023-07-31T13:48:46;19.00;99.90
51500;DHT22;39101;53.478;6.158;2023-07-31T13:51:12;19.00;99.90
51500;DHT22;39101;53.478;6.158;2023-07-31T13:53:38;19.00;99.90
51500;DHT22;39101;53.478;6.158;2023-07-31T13:56:03;19.00;99.90
51500;DHT22;39101;53.478;6.158;2023-07-31T13:58:29;19.00;99.90
51500;DHT22;39101;53.478;6.158;2023-07-31T14:00:55;19.00;99.90
51500;DHT22;39101;53.478;6.158;2023-07-31T14:03:20;19.00;99.90
51500;DHT22;39101;53.478;6.158;2023-07-31T14:05:46;18.90;99.90
51500;DHT22;39101;53.478;6.158;2023-07-31T14:08:12;18.90;99.90
51500;DHT22;39101;53.478;6.158;2023-07-31T14:10:37;18.80;99.90
51500;DHT22;39101;53.478;6.158;2023-07-31T14:13:03;18.90;99.90
51500;DHT22;39101;53.478;6.158;2023-07-31T14:15:29;18.80;99.90
51500;DHT22;39101;53.478;6.158;2023-07-31T14:17:54;18.90;99.90
51500;DHT22;39101;53.478;6.158;2023-07-31T14:20:20;18.90;99.90
51500;DHT22;39101;53.478;6.158;2023-07-31T14:22:45;18.90;99.90
51500;DHT22;39101;53.478;6.158;2023-07-31T14:25:11;18.90;99.90
51500;DHT22;39101;53.478;6.158;2023-07-31T14:27:37;18.90;99.90
51500;DHT22;39101;53.478;6.158;2023-07-31T14:30:03;18.90;99.90
51500;DHT22;39101;53.478;6.158;2023-07-31T14:32:29;18.90;99.90
51500;DHT22;39101;53.478;6.158;2023-07-31T14:34:54;18.90;99.90
51500;DHT22;39101;53.478;6.158;2023-07-31T14:37:20;18.90;99.90
51500;DHT22;39101;53.478;6.158;2023-07-31T14:39:46;19.00;99.90
51500;DHT22;39101;53.478;6.158;2023-07-31T14:42:11;19.10;99.90
51500;DHT22;39101;53.478;6.158;2023-07-31T14:44:38;19.10;99.90
51500;DHT22;39101;53.478;6.158;2023-07-31T14:47:03;19.10;99.90
51500;DHT22;39101;53.478;6.158;2023-07-31T14:49:29;19.10;99.90
51500;DHT22;39101;53.478;6.158;2023-07-31T14:51:55;19.10;99.90
51500;DHT22;39101;53.478;6.158;2023-07-31T14:54:21;19.10;99.90
51500;DHT22;39101;53.478;6.158;2023-07-31T14:56:46;19.10;99.90
51500;DHT22;39101;53.478;6.158;2023-07-31T14:59:12;19.10;99.90
51500;DHT22;39101;53.478;6.158;2023-07-31T15:01:38;19.10;99.90
51500;DHT22;39101;53.478;6.158;2023-07-31T15:04:04;19.00;99.90
51500;DHT22;39101;53.478;6.158;2023-07-31T15:06:30;19.10;99.90
51500;DHT22;39101;53.478;6.158;2023-07-31T15:08:55;19.00;99.90
51500;DHT22;39101;53.478;6.158;2023-07-31T15:11:21;19.10;99.90
51500;DHT22;39101;53.478;6.158;2023-07-31T15:13:46;19.10;99.90
51500;DHT22;39101;53.478;6.158;2023-07-31T15:16:12;19.00;99.90
51500;DHT22;39101;53.478;6.158;2023-07-31T15:18:38;19.00;99.90
51500;DHT22;39101;53.478;6.158;2023-07-31T15:21:04;19.10;99.90
51500;DHT22;39101;53.478;6.158;2023-07-31T15:23:31;19.00;99.90
51500;DHT22;39101;53.478;6.158;2023-07-31T15:25:56;19.00;99.90
51500;DHT22;39101;53.478;6.158;2023-07-31T15:28:22;19.00;99.90
51500;DHT22;39101;53.478;6.158;2023-07-31T15:30:48;19.00;99.90
51500;DHT22;39101;53.478;6.158;2023-07-31T15:33:14;18.90;99.90